Aeroporto :
LOGIN :

Iscrizione | Disclaimer

   EN    FR    IT 

 










Sommario :    VFR   VFR Marginale   IFR   IFR Intensivo   IFR Molto Intensivo
Visibilità : 
Base nubi : 
>= 8 km
>= 3000ft
5 / 8 km
1000 / 3000 ft
1500m / 5 km
500 / 1000 ft
800 / 1500m
200 / 500 ft
< 800m
< 200 ft
Simboli :   Temporali  Nebbia  Neve Forte  Precipitazioni Forti  Vento > 20 kt
SIGMETs :   Varie  Temporali  Ghiacco  Turbolenza  Onda orograficha  Ceneri Vulcaniche






- Altitudine del aeroporto : 1455 ft


ETIH - Hohenfels Army Air Field

ULTIMO METAR :
  • 130923Z AUTO 00000KT 9999 -RA BKN006 OVC014 03/03 A2965 RMK AO2 CIG 006V013 SLP059 $

METARs OBSOLETI :
  • 130916Z AUTO 00000KT 9999 -RA BKN008 OVC013 03/03 A2965 RMK AO2 CIG 007V013 SLP059 $
  • 130907Z AUTO 00000KT 9999 -RA BKN007 OVC013 03/03 A2965 RMK AO2 CIG 007V013 BKN V SCT SLP059 $
  • 130856Z AUTO 00000KT 9999 -RA BKN007 OVC011 03/03 A2965 RMK AO2 UPB07E09RAB09 BKN V OVC SLP059 P0000 60000 T00260026 52007 $
  • 130833Z AUTO 00000KT 9999 -RA OVC007 03/03 A2965 RMK AO2 UPB07E09RAB09 SLP059 $
  • 130808Z AUTO 19003KT 9999 -UP OVC007 02/02 A2964 RMK AO2 UPB07 SLP055 $
  • 130656Z AUTO 00000KT 9999 OVC006 02/02 A2963 RMK AO2 SLP052 T00150015 $

Previsioni scadute.



MetMap, La meteo Aeronautica in un colpo d'occhio ! - Copyright ORBIFLY Dicembre 2007 - Disclaimer

ORBIFLY MET'MAP TEAM :

Programmazione e sviluppo : Alexandra Zaïnal
Concezione e sviluppo : Baudouin d'Aumeries
Co-Programmazione e sviluppo : Marc-Olivier Méhu
Supporto tecnico e logistico : Manuel Goepfert
Aiuto per la traduzione : Arnaldo La Scala

Contatto : metmap@orbifly.com




FONTI E CREDITI :

   NOAA